Airport View

Enter AWOS ICAO identifier for current METAR.

ex. KFNL

K08D 251615Z AUTO 30010KT 10SM OVC060 M07/M09 A3043 RMK AO2

25 Oct 2020 16:18

Frequency: 121.1

Phone: 701-628-1737

Other Area AWOS: KD60 - KMIB - KMOT - KS25

TAF KMIB 250900Z 2509/2615 31009KT 9999 BKN020 OVC030 620206 QNH3040INS BECMG 2516/2517 31010G15KT 9999 BKN020 620206 QNH3044INS BECMG 2518/2519 31012KT 9999 BKN020 620206 QNH3038INS BECMG 2602/2603 28006KT 9999 SCT020 QNH3031INS BECMG 2614/2615 22012G18KT 9999 FEW030 QNH3030INS TXM03/2519Z TNM10/2513Z